sensor_id;sensor_type;location;lat;lon;timestamp;P1;durP1;ratioP1;P2;durP2;ratioP2
29382;SDS011;16365;51.598;7.668;2023-06-22T00:00:01;6.95;;;4.32;;
29382;SDS011;16365;51.598;7.668;2023-06-22T00:02:34;7.10;;;4.18;;
29382;SDS011;16365;51.598;7.668;2023-06-22T00:05:00;6.80;;;4.43;;
29382;SDS011;16365;51.598;7.668;2023-06-22T00:07:27;10.23;;;5.15;;
29382;SDS011;16365;51.598;7.668;2023-06-22T00:09:53;7.55;;;5.30;;
29382;SDS011;16365;51.598;7.668;2023-06-22T00:12:20;7.80;;;5.18;;
29382;SDS011;16365;51.598;7.668;2023-06-22T00:14:46;10.63;;;5.82;;
29382;SDS011;16365;51.598;7.668;2023-06-22T00:17:13;7.78;;;5.55;;
29382;SDS011;16365;51.598;7.668;2023-06-22T00:19:39;7.25;;;5.38;;
29382;SDS011;16365;51.598;7.668;2023-06-22T00:22:06;8.15;;;5.30;;
29382;SDS011;16365;51.598;7.668;2023-06-22T00:24:33;7.22;;;5.30;;
29382;SDS011;16365;51.598;7.668;2023-06-22T00:26:59;10.88;;;5.65;;
29382;SDS011;16365;51.598;7.668;2023-06-22T00:29:26;8.25;;;5.38;;
29382;SDS011;16365;51.598;7.668;2023-06-22T00:31:52;6.88;;;5.32;;
29382;SDS011;16365;51.598;7.668;2023-06-22T00:34:19;9.00;;;5.68;;
29382;SDS011;16365;51.598;7.668;2023-06-22T00:36:45;12.13;;;6.22;;
29382;SDS011;16365;51.598;7.668;2023-06-22T00:39:12;8.27;;;5.13;;
29382;SDS011;16365;51.598;7.668;2023-06-22T00:41:39;7.80;;;5.28;;
29382;SDS011;16365;51.598;7.668;2023-06-22T00:44:06;9.95;;;5.70;;
29382;SDS011;16365;51.598;7.668;2023-06-22T00:46:32;8.57;;;5.45;;
29382;SDS011;16365;51.598;7.668;2023-06-22T00:48:59;11.35;;;5.28;;
29382;SDS011;16365;51.598;7.668;2023-06-22T00:51:26;8.30;;;5.60;;
29382;SDS011;16365;51.598;7.668;2023-06-22T00:53:53;6.93;;;4.78;;
29382;SDS011;16365;51.598;7.668;2023-06-22T00:56:20;8.88;;;4.93;;
29382;SDS011;16365;51.598;7.668;2023-06-22T00:58:51;9.02;;;4.97;;
29382;SDS011;16365;51.598;7.668;2023-06-22T01:01:23;8.63;;;5.53;;
29382;SDS011;16365;51.598;7.668;2023-06-22T01:03:50;8.75;;;5.85;;
29382;SDS011;16365;51.598;7.668;2023-06-22T01:06:19;8.00;;;5.55;;
29382;SDS011;16365;51.598;7.668;2023-06-22T01:09:05;8.32;;;5.53;;
29382;SDS011;16365;51.598;7.668;2023-06-22T01:11:42;13.48;;;5.75;;
29382;SDS011;16365;51.598;7.668;2023-06-22T01:14:23;11.13;;;5.78;;
29382;SDS011;16365;51.598;7.668;2023-06-22T01:16:56;8.55;;;6.07;;
29382;SDS011;16365;51.598;7.668;2023-06-22T01:22:17;7.30;;;6.10;;
29382;SDS011;16365;51.598;7.668;2023-06-22T01:27:32;9.15;;;5.60;;
29382;SDS011;16365;51.598;7.668;2023-06-22T01:30:12;6.80;;;5.57;;
29382;SDS011;16365;51.598;7.668;2023-06-22T01:32:41;9.35;;;5.57;;
29382;SDS011;16365;51.598;7.668;2023-06-22T01:35:09;7.68;;;5.43;;
29382;SDS011;16365;51.598;7.668;2023-06-22T01:37:37;8.85;;;6.22;;
29382;SDS011;16365;51.598;7.668;2023-06-22T01:40:05;8.45;;;5.85;;
29382;SDS011;16365;51.598;7.668;2023-06-22T01:42:34;9.20;;;5.70;;
29382;SDS011;16365;51.598;7.668;2023-06-22T01:45:01;8.70;;;6.47;;
29382;SDS011;16365;51.598;7.668;2023-06-22T01:47:28;16.13;;;6.28;;
29382;SDS011;16365;51.598;7.668;2023-06-22T01:49:55;9.85;;;6.60;;
29382;SDS011;16365;51.598;7.668;2023-06-22T01:52:22;11.00;;;6.57;;
29382;SDS011;16365;51.598;7.668;2023-06-22T01:54:49;8.35;;;6.35;;
29382;SDS011;16365;51.598;7.668;2023-06-22T01:57:15;13.85;;;7.13;;
29382;SDS011;16365;51.598;7.668;2023-06-22T02:02:09;10.05;;;6.20;;
29382;SDS011;16365;51.598;7.668;2023-06-22T02:04:42;8.25;;;6.38;;
29382;SDS011;16365;51.598;7.668;2023-06-22T02:07:14;8.95;;;6.40;;
29382;SDS011;16365;51.598;7.668;2023-06-22T02:09:44;11.05;;;6.32;;
29382;SDS011;16365;51.598;7.668;2023-06-22T02:12:13;11.98;;;6.50;;
29382;SDS011;16365;51.598;7.668;2023-06-22T02:14:43;10.02;;;6.68;;
29382;SDS011;16365;51.598;7.668;2023-06-22T02:17:12;9.93;;;6.78;;
29382;SDS011;16365;51.598;7.668;2023-06-22T02:19:42;15.02;;;6.45;;
29382;SDS011;16365;51.598;7.668;2023-06-22T02:22:09;10.07;;;6.57;;
29382;SDS011;16365;51.598;7.668;2023-06-22T02:24:35;11.40;;;7.22;;
29382;SDS011;16365;51.598;7.668;2023-06-22T02:27:02;8.82;;;6.70;;
29382;SDS011;16365;51.598;7.668;2023-06-22T02:29:29;10.20;;;6.82;;
29382;SDS011;16365;51.598;7.668;2023-06-22T02:31:55;10.23;;;6.70;;
29382;SDS011;16365;51.598;7.668;2023-06-22T02:34:22;10.52;;;6.70;;
29382;SDS011;16365;51.598;7.668;2023-06-22T02:36:49;7.47;;;6.35;;
29382;SDS011;16365;51.598;7.668;2023-06-22T02:39:22;13.05;;;6.50;;
29382;SDS011;16365;51.598;7.668;2023-06-22T02:41:51;9.75;;;7.07;;
29382;SDS011;16365;51.598;7.668;2023-06-22T02:46:46;10.23;;;6.70;;
29382;SDS011;16365;51.598;7.668;2023-06-22T02:49:13;10.82;;;7.28;;
29382;SDS011;16365;51.598;7.668;2023-06-22T02:51:41;10.85;;;6.90;;
29382;SDS011;16365;51.598;7.668;2023-06-22T02:54:11;8.40;;;6.43;;
29382;SDS011;16365;51.598;7.668;2023-06-22T02:56:37;13.82;;;6.72;;
29382;SDS011;16365;51.598;7.668;2023-06-22T02:59:04;10.93;;;7.85;;
29382;SDS011;16365;51.598;7.668;2023-06-22T03:01:30;12.82;;;7.70;;
29382;SDS011;16365;51.598;7.668;2023-06-22T03:04:08;13.15;;;8.07;;
29382;SDS011;16365;51.598;7.668;2023-06-22T03:06:35;10.82;;;7.90;;
29382;SDS011;16365;51.598;7.668;2023-06-22T03:09:02;11.23;;;7.80;;
29382;SDS011;16365;51.598;7.668;2023-06-22T03:11:32;12.27;;;7.75;;
29382;SDS011;16365;51.598;7.668;2023-06-22T03:13:59;14.13;;;9.30;;
29382;SDS011;16365;51.598;7.668;2023-06-22T03:16:27;13.05;;;9.02;;
29382;SDS011;16365;51.598;7.668;2023-06-22T03:18:54;12.55;;;8.25;;
29382;SDS011;16365;51.598;7.668;2023-06-22T03:21:21;12.68;;;8.63;;
29382;SDS011;16365;51.598;7.668;2023-06-22T03:23:48;11.60;;;8.88;;
29382;SDS011;16365;51.598;7.668;2023-06-22T03:26:18;16.95;;;9.18;;
29382;SDS011;16365;51.598;7.668;2023-06-22T03:28:46;11.25;;;8.57;;
29382;SDS011;16365;51.598;7.668;2023-06-22T03:31:14;11.50;;;8.43;;
29382;SDS011;16365;51.598;7.668;2023-06-22T03:33:40;12.95;;;8.70;;
29382;SDS011;16365;51.598;7.668;2023-06-22T03:36:07;11.63;;;8.80;;
29382;SDS011;16365;51.598;7.668;2023-06-22T03:38:34;11.77;;;8.87;;
29382;SDS011;16365;51.598;7.668;2023-06-22T03:41:01;12.85;;;9.30;;
29382;SDS011;16365;51.598;7.668;2023-06-22T03:43:28;13.48;;;9.30;;
29382;SDS011;16365;51.598;7.668;2023-06-22T03:45:56;12.13;;;8.90;;
29382;SDS011;16365;51.598;7.668;2023-06-22T03:48:23;13.55;;;9.65;;
29382;SDS011;16365;51.598;7.668;2023-06-22T03:50:49;14.32;;;8.95;;
29382;SDS011;16365;51.598;7.668;2023-06-22T03:53:16;12.52;;;9.35;;
29382;SDS011;16365;51.598;7.668;2023-06-22T03:55:49;14.13;;;9.48;;
29382;SDS011;16365;51.598;7.668;2023-06-22T03:58:19;14.88;;;10.05;;
29382;SDS011;16365;51.598;7.668;2023-06-22T04:00:49;18.55;;;9.60;;
29382;SDS011;16365;51.598;7.668;2023-06-22T04:03:17;16.45;;;9.88;;
29382;SDS011;16365;51.598;7.668;2023-06-22T04:05:47;15.63;;;9.57;;
29382;SDS011;16365;51.598;7.668;2023-06-22T04:08:15;13.17;;;9.47;;
29382;SDS011;16365;51.598;7.668;2023-06-22T04:10:42;13.07;;;9.40;;
29382;SDS011;16365;51.598;7.668;2023-06-22T04:13:08;13.85;;;9.95;;
29382;SDS011;16365;51.598;7.668;2023-06-22T04:15:35;15.23;;;10.05;;
29382;SDS011;16365;51.598;7.668;2023-06-22T04:18:02;16.08;;;10.52;;
29382;SDS011;16365;51.598;7.668;2023-06-22T04:20:29;13.90;;;11.13;;
29382;SDS011;16365;51.598;7.668;2023-06-22T04:22:55;14.02;;;10.32;;
29382;SDS011;16365;51.598;7.668;2023-06-22T04:25:22;15.38;;;9.70;;
29382;SDS011;16365;51.598;7.668;2023-06-22T04:27:50;17.00;;;10.88;;
29382;SDS011;16365;51.598;7.668;2023-06-22T04:30:17;15.07;;;10.68;;
29382;SDS011;16365;51.598;7.668;2023-06-22T04:32:44;17.77;;;10.80;;
29382;SDS011;16365;51.598;7.668;2023-06-22T04:35:11;15.90;;;11.55;;
29382;SDS011;16365;51.598;7.668;2023-06-22T04:37:38;16.48;;;11.70;;
29382;SDS011;16365;51.598;7.668;2023-06-22T04:40:05;15.02;;;10.85;;
29382;SDS011;16365;51.598;7.668;2023-06-22T04:42:33;19.70;;;10.82;;
29382;SDS011;16365;51.598;7.668;2023-06-22T04:45:00;14.27;;;11.15;;
29382;SDS011;16365;51.598;7.668;2023-06-22T04:47:27;15.43;;;10.60;;
29382;SDS011;16365;51.598;7.668;2023-06-22T04:49:54;13.60;;;10.73;;
29382;SDS011;16365;51.598;7.668;2023-06-22T04:52:20;16.15;;;10.98;;
29382;SDS011;16365;51.598;7.668;2023-06-22T04:54:47;17.90;;;10.95;;
29382;SDS011;16365;51.598;7.668;2023-06-22T04:57:14;17.58;;;10.63;;
29382;SDS011;16365;51.598;7.668;2023-06-22T04:59:41;18.42;;;11.27;;
29382;SDS011;16365;51.598;7.668;2023-06-22T05:02:08;17.57;;;12.40;;
29382;SDS011;16365;51.598;7.668;2023-06-22T05:04:35;17.00;;;11.60;;
29382;SDS011;16365;51.598;7.668;2023-06-22T05:07:07;17.65;;;11.68;;
29382;SDS011;16365;51.598;7.668;2023-06-22T05:09:34;20.55;;;11.75;;
29382;SDS011;16365;51.598;7.668;2023-06-22T05:12:01;19.98;;;12.02;;
29382;SDS011;16365;51.598;7.668;2023-06-22T05:14:29;16.65;;;10.55;;
29382;SDS011;16365;51.598;7.668;2023-06-22T05:16:56;19.00;;;12.30;;
29382;SDS011;16365;51.598;7.668;2023-06-22T05:21:57;19.30;;;11.35;;
29382;SDS011;16365;51.598;7.668;2023-06-22T05:24:24;16.02;;;11.73;;
29382;SDS011;16365;51.598;7.668;2023-06-22T05:26:50;17.65;;;11.18;;
29382;SDS011;16365;51.598;7.668;2023-06-22T05:29:17;16.88;;;11.27;;
29382;SDS011;16365;51.598;7.668;2023-06-22T05:31:43;16.55;;;11.98;;
29382;SDS011;16365;51.598;7.668;2023-06-22T05:34:10;19.23;;;11.93;;
29382;SDS011;16365;51.598;7.668;2023-06-22T05:36:37;18.05;;;11.40;;
29382;SDS011;16365;51.598;7.668;2023-06-22T05:39:13;14.32;;;10.40;;
29382;SDS011;16365;51.598;7.668;2023-06-22T05:41:41;19.93;;;11.10;;
29382;SDS011;16365;51.598;7.668;2023-06-22T05:44:09;14.15;;;10.10;;
29382;SDS011;16365;51.598;7.668;2023-06-22T05:46:35;17.15;;;9.88;;
29382;SDS011;16365;51.598;7.668;2023-06-22T05:49:02;21.77;;;10.20;;
29382;SDS011;16365;51.598;7.668;2023-06-22T05:51:29;17.83;;;9.70;;
29382;SDS011;16365;51.598;7.668;2023-06-22T05:53:56;12.90;;;8.70;;
29382;SDS011;16365;51.598;7.668;2023-06-22T05:56:22;15.10;;;9.45;;
29382;SDS011;16365;51.598;7.668;2023-06-22T05:58:49;13.65;;;9.02;;
29382;SDS011;16365;51.598;7.668;2023-06-22T06:01:15;13.65;;;9.40;;
29382;SDS011;16365;51.598;7.668;2023-06-22T06:03:42;14.35;;;9.20;;
29382;SDS011;16365;51.598;7.668;2023-06-22T06:06:08;15.02;;;8.65;;
29382;SDS011;16365;51.598;7.668;2023-06-22T06:08:38;15.80;;;9.25;;
29382;SDS011;16365;51.598;7.668;2023-06-22T06:11:05;17.02;;;9.40;;
29382;SDS011;16365;51.598;7.668;2023-06-22T06:13:31;15.10;;;9.32;;
29382;SDS011;16365;51.598;7.668;2023-06-22T06:15:58;14.88;;;9.32;;
29382;SDS011;16365;51.598;7.668;2023-06-22T06:18:25;14.25;;;9.65;;
29382;SDS011;16365;51.598;7.668;2023-06-22T06:20:52;15.75;;;9.40;;
29382;SDS011;16365;51.598;7.668;2023-06-22T06:23:19;17.48;;;9.45;;
29382;SDS011;16365;51.598;7.668;2023-06-22T06:25:45;12.52;;;9.48;;
29382;SDS011;16365;51.598;7.668;2023-06-22T06:28:12;13.52;;;9.15;;
29382;SDS011;16365;51.598;7.668;2023-06-22T06:30:38;14.20;;;9.40;;
29382;SDS011;16365;51.598;7.668;2023-06-22T06:33:04;14.68;;;9.80;;
29382;SDS011;16365;51.598;7.668;2023-06-22T06:35:35;12.80;;;10.00;;
29382;SDS011;16365;51.598;7.668;2023-06-22T06:38:01;15.25;;;10.30;;
29382;SDS011;16365;51.598;7.668;2023-06-22T06:40:28;28.10;;;10.13;;
29382;SDS011;16365;51.598;7.668;2023-06-22T06:42:56;21.70;;;10.73;;
29382;SDS011;16365;51.598;7.668;2023-06-22T06:45:23;19.30;;;10.98;;
29382;SDS011;16365;51.598;7.668;2023-06-22T06:47:51;20.85;;;10.93;;
29382;SDS011;16365;51.598;7.668;2023-06-22T06:50:18;13.95;;;10.32;;
29382;SDS011;16365;51.598;7.668;2023-06-22T06:52:45;18.77;;;9.52;;
29382;SDS011;16365;51.598;7.668;2023-06-22T06:55:11;15.75;;;10.43;;
29382;SDS011;16365;51.598;7.668;2023-06-22T06:57:39;16.80;;;10.70;;
29382;SDS011;16365;51.598;7.668;2023-06-22T07:00:06;19.60;;;12.23;;
29382;SDS011;16365;51.598;7.668;2023-06-22T07:02:38;16.58;;;11.07;;
29382;SDS011;16365;51.598;7.668;2023-06-22T07:05:09;15.27;;;10.98;;
29382;SDS011;16365;51.598;7.668;2023-06-22T07:07:36;19.25;;;11.85;;
29382;SDS011;16365;51.598;7.668;2023-06-22T07:10:04;16.95;;;11.63;;
29382;SDS011;16365;51.598;7.668;2023-06-22T07:12:32;17.27;;;11.02;;
29382;SDS011;16365;51.598;7.668;2023-06-22T07:15:05;17.15;;;13.13;;
29382;SDS011;16365;51.598;7.668;2023-06-22T07:17:36;20.13;;;13.00;;
29382;SDS011;16365;51.598;7.668;2023-06-22T07:20:06;17.25;;;12.95;;
29382;SDS011;16365;51.598;7.668;2023-06-22T07:22:39;17.10;;;12.90;;
29382;SDS011;16365;51.598;7.668;2023-06-22T07:25:06;14.50;;;11.75;;
29382;SDS011;16365;51.598;7.668;2023-06-22T07:27:42;16.38;;;12.70;;
29382;SDS011;16365;51.598;7.668;2023-06-22T07:30:11;20.20;;;14.05;;
29382;SDS011;16365;51.598;7.668;2023-06-22T07:32:39;17.88;;;14.05;;
29382;SDS011;16365;51.598;7.668;2023-06-22T07:35:07;22.63;;;15.75;;
29382;SDS011;16365;51.598;7.668;2023-06-22T07:37:34;22.15;;;15.10;;
29382;SDS011;16365;51.598;7.668;2023-06-22T07:40:01;28.13;;;17.75;;
29382;SDS011;16365;51.598;7.668;2023-06-22T07:42:32;23.02;;;16.02;;
29382;SDS011;16365;51.598;7.668;2023-06-22T07:45:02;21.00;;;15.13;;
29382;SDS011;16365;51.598;7.668;2023-06-22T07:47:29;23.63;;;15.57;;
29382;SDS011;16365;51.598;7.668;2023-06-22T07:49:57;22.23;;;15.90;;
29382;SDS011;16365;51.598;7.668;2023-06-22T07:52:27;20.30;;;15.25;;
29382;SDS011;16365;51.598;7.668;2023-06-22T07:54:54;24.17;;;16.27;;
29382;SDS011;16365;51.598;7.668;2023-06-22T07:57:21;21.85;;;15.93;;
29382;SDS011;16365;51.598;7.668;2023-06-22T07:59:47;19.90;;;15.50;;
29382;SDS011;16365;51.598;7.668;2023-06-22T08:02:14;20.60;;;15.30;;
29382;SDS011;16365;51.598;7.668;2023-06-22T08:04:41;19.10;;;16.42;;
29382;SDS011;16365;51.598;7.668;2023-06-22T08:07:07;22.08;;;16.13;;
29382;SDS011;16365;51.598;7.668;2023-06-22T08:09:34;22.83;;;17.30;;
29382;SDS011;16365;51.598;7.668;2023-06-22T08:12:01;20.98;;;16.90;;
29382;SDS011;16365;51.598;7.668;2023-06-22T08:14:27;23.98;;;17.30;;
29382;SDS011;16365;51.598;7.668;2023-06-22T08:19:22;24.02;;;17.77;;
29382;SDS011;16365;51.598;7.668;2023-06-22T08:21:48;27.88;;;19.63;;
29382;SDS011;16365;51.598;7.668;2023-06-22T08:24:15;24.27;;;17.50;;
29382;SDS011;16365;51.598;7.668;2023-06-22T08:26:42;28.63;;;19.95;;
29382;SDS011;16365;51.598;7.668;2023-06-22T08:29:08;28.30;;;20.35;;
29382;SDS011;16365;51.598;7.668;2023-06-22T08:31:35;23.13;;;18.23;;
29382;SDS011;16365;51.598;7.668;2023-06-22T08:34:01;34.65;;;20.75;;
29382;SDS011;16365;51.598;7.668;2023-06-22T08:36:28;29.55;;;20.08;;
29382;SDS011;16365;51.598;7.668;2023-06-22T08:38:59;26.02;;;19.15;;
29382;SDS011;16365;51.598;7.668;2023-06-22T08:41:29;25.48;;;18.42;;
29382;SDS011;16365;51.598;7.668;2023-06-22T08:43:56;27.10;;;20.70;;
29382;SDS011;16365;51.598;7.668;2023-06-22T08:46:23;27.55;;;19.90;;
29382;SDS011;16365;51.598;7.668;2023-06-22T08:48:56;23.40;;;18.38;;
29382;SDS011;16365;51.598;7.668;2023-06-22T08:51:23;29.58;;;19.08;;
29382;SDS011;16365;51.598;7.668;2023-06-22T08:53:50;21.80;;;16.90;;
29382;SDS011;16365;51.598;7.668;2023-06-22T08:56:16;23.35;;;17.75;;
29382;SDS011;16365;51.598;7.668;2023-06-22T08:58:44;23.83;;;17.65;;
29382;SDS011;16365;51.598;7.668;2023-06-22T09:01:10;22.13;;;16.60;;
29382;SDS011;16365;51.598;7.668;2023-06-22T09:03:37;23.13;;;16.48;;
29382;SDS011;16365;51.598;7.668;2023-06-22T09:06:04;18.95;;;14.02;;
29382;SDS011;16365;51.598;7.668;2023-06-22T09:08:30;20.88;;;14.93;;
29382;SDS011;16365;51.598;7.668;2023-06-22T09:10:58;20.25;;;14.60;;
29382;SDS011;16365;51.598;7.668;2023-06-22T09:13:24;21.33;;;14.05;;
29382;SDS011;16365;51.598;7.668;2023-06-22T09:15:51;15.05;;;12.15;;
29382;SDS011;16365;51.598;7.668;2023-06-22T09:18:18;16.77;;;12.63;;
29382;SDS011;16365;51.598;7.668;2023-06-22T09:20:45;17.20;;;13.07;;
29382;SDS011;16365;51.598;7.668;2023-06-22T09:23:11;16.08;;;12.75;;
29382;SDS011;16365;51.598;7.668;2023-06-22T09:25:38;18.95;;;12.90;;
29382;SDS011;16365;51.598;7.668;2023-06-22T09:28:06;15.40;;;12.55;;
29382;SDS011;16365;51.598;7.668;2023-06-22T09:30:32;18.05;;;11.65;;
29382;SDS011;16365;51.598;7.668;2023-06-22T09:32:59;16.10;;;12.10;;
29382;SDS011;16365;51.598;7.668;2023-06-22T09:35:27;22.33;;;12.57;;
29382;SDS011;16365;51.598;7.668;2023-06-22T09:37:54;15.77;;;11.52;;
29382;SDS011;16365;51.598;7.668;2023-06-22T09:40:21;14.45;;;12.13;;
29382;SDS011;16365;51.598;7.668;2023-06-22T09:42:48;15.63;;;12.18;;
29382;SDS011;16365;51.598;7.668;2023-06-22T09:45:14;15.02;;;11.50;;
29382;SDS011;16365;51.598;7.668;2023-06-22T09:47:41;11.32;;;9.23;;
29382;SDS011;16365;51.598;7.668;2023-06-22T09:50:09;11.85;;;9.30;;
29382;SDS011;16365;51.598;7.668;2023-06-22T09:52:35;12.75;;;9.13;;
29382;SDS011;16365;51.598;7.668;2023-06-22T09:55:05;11.13;;;8.30;;
29382;SDS011;16365;51.598;7.668;2023-06-22T09:57:32;15.63;;;8.65;;
29382;SDS011;16365;51.598;7.668;2023-06-22T09:59:59;13.07;;;8.93;;
29382;SDS011;16365;51.598;7.668;2023-06-22T10:02:25;13.20;;;9.20;;
29382;SDS011;16365;51.598;7.668;2023-06-22T10:04:52;15.38;;;9.13;;
29382;SDS011;16365;51.598;7.668;2023-06-22T10:07:19;16.52;;;8.95;;
29382;SDS011;16365;51.598;7.668;2023-06-22T10:09:45;9.93;;;8.00;;
29382;SDS011;16365;51.598;7.668;2023-06-22T10:12:12;12.05;;;8.63;;
29382;SDS011;16365;51.598;7.668;2023-06-22T10:14:39;10.68;;;8.27;;
29382;SDS011;16365;51.598;7.668;2023-06-22T10:17:05;13.65;;;8.45;;
29382;SDS011;16365;51.598;7.668;2023-06-22T10:19:34;16.38;;;8.68;;
29382;SDS011;16365;51.598;7.668;2023-06-22T10:22:05;12.73;;;9.20;;
29382;SDS011;16365;51.598;7.668;2023-06-22T10:24:31;14.40;;;9.68;;
29382;SDS011;16365;51.598;7.668;2023-06-22T10:26:58;14.10;;;9.15;;
29382;SDS011;16365;51.598;7.668;2023-06-22T10:29:24;12.40;;;8.70;;
29382;SDS011;16365;51.598;7.668;2023-06-22T10:31:51;12.20;;;9.10;;
29382;SDS011;16365;51.598;7.668;2023-06-22T10:34:17;13.05;;;8.95;;
29382;SDS011;16365;51.598;7.668;2023-06-22T10:36:44;9.75;;;8.48;;
29382;SDS011;16365;51.598;7.668;2023-06-22T10:39:15;13.95;;;9.38;;
29382;SDS011;16365;51.598;7.668;2023-06-22T10:41:41;10.15;;;8.55;;
29382;SDS011;16365;51.598;7.668;2023-06-22T10:44:08;11.27;;;8.85;;
29382;SDS011;16365;51.598;7.668;2023-06-22T10:46:34;11.85;;;8.52;;
29382;SDS011;16365;51.598;7.668;2023-06-22T10:49:01;13.95;;;8.38;;
29382;SDS011;16365;51.598;7.668;2023-06-22T10:51:27;13.02;;;9.00;;
29382;SDS011;16365;51.598;7.668;2023-06-22T10:53:54;13.20;;;8.98;;
29382;SDS011;16365;51.598;7.668;2023-06-22T10:56:21;10.38;;;7.95;;
29382;SDS011;16365;51.598;7.668;2023-06-22T10:58:48;8.77;;;7.88;;
29382;SDS011;16365;51.598;7.668;2023-06-22T11:01:14;11.18;;;8.00;;
29382;SDS011;16365;51.598;7.668;2023-06-22T11:04:00;10.25;;;7.30;;
29382;SDS011;16365;51.598;7.668;2023-06-22T11:06:26;9.02;;;7.13;;
29382;SDS011;16365;51.598;7.668;2023-06-22T11:08:53;11.95;;;7.47;;
29382;SDS011;16365;51.598;7.668;2023-06-22T11:11:37;12.25;;;7.03;;
29382;SDS011;16365;51.598;7.668;2023-06-22T11:14:04;10.75;;;6.53;;
29382;SDS011;16365;51.598;7.668;2023-06-22T11:16:30;9.13;;;6.75;;
29382;SDS011;16365;51.598;7.668;2023-06-22T11:18:57;11.75;;;8.07;;
29382;SDS011;16365;51.598;7.668;2023-06-22T11:21:23;8.07;;;6.60;;
29382;SDS011;16365;51.598;7.668;2023-06-22T11:23:50;9.85;;;6.85;;
29382;SDS011;16365;51.598;7.668;2023-06-22T11:26:16;8.88;;;6.47;;
29382;SDS011;16365;51.598;7.668;2023-06-22T11:28:43;9.63;;;6.78;;
29382;SDS011;16365;51.598;7.668;2023-06-22T11:31:10;8.40;;;7.30;;
29382;SDS011;16365;51.598;7.668;2023-06-22T11:33:51;11.27;;;7.22;;
29382;SDS011;16365;51.598;7.668;2023-06-22T11:36:17;11.75;;;6.97;;
29382;SDS011;16365;51.598;7.668;2023-06-22T11:38:44;7.40;;;6.63;;
29382;SDS011;16365;51.598;7.668;2023-06-22T11:41:11;10.20;;;7.13;;
29382;SDS011;16365;51.598;7.668;2023-06-22T11:43:37;11.18;;;7.30;;
29382;SDS011;16365;51.598;7.668;2023-06-22T11:46:04;8.35;;;7.10;;
29382;SDS011;16365;51.598;7.668;2023-06-22T11:48:30;11.07;;;8.07;;
29382;SDS011;16365;51.598;7.668;2023-06-22T11:50:57;13.65;;;7.95;;
29382;SDS011;16365;51.598;7.668;2023-06-22T11:53:26;17.55;;;8.18;;
29382;SDS011;16365;51.598;7.668;2023-06-22T11:55:53;21.83;;;9.88;;
29382;SDS011;16365;51.598;7.668;2023-06-22T11:58:21;23.80;;;10.18;;
29382;SDS011;16365;51.598;7.668;2023-06-22T12:00:48;23.33;;;10.70;;
29382;SDS011;16365;51.598;7.668;2023-06-22T12:03:17;18.70;;;10.00;;
29382;SDS011;16365;51.598;7.668;2023-06-22T12:05:43;30.77;;;10.18;;
29382;SDS011;16365;51.598;7.668;2023-06-22T12:08:10;32.15;;;10.32;;
29382;SDS011;16365;51.598;7.668;2023-06-22T12:10:37;20.48;;;10.18;;
29382;SDS011;16365;51.598;7.668;2023-06-22T12:13:04;16.88;;;9.50;;
29382;SDS011;16365;51.598;7.668;2023-06-22T12:15:30;17.23;;;10.48;;
29382;SDS011;16365;51.598;7.668;2023-06-22T12:17:57;22.98;;;10.48;;
29382;SDS011;16365;51.598;7.668;2023-06-22T12:20:24;20.75;;;10.65;;
29382;SDS011;16365;51.598;7.668;2023-06-22T12:22:51;24.35;;;11.65;;
29382;SDS011;16365;51.598;7.668;2023-06-22T12:25:19;23.93;;;11.53;;
29382;SDS011;16365;51.598;7.668;2023-06-22T12:27:45;16.48;;;10.50;;
29382;SDS011;16365;51.598;7.668;2023-06-22T12:30:11;18.30;;;10.38;;
29382;SDS011;16365;51.598;7.668;2023-06-22T12:32:38;17.20;;;10.75;;
29382;SDS011;16365;51.598;7.668;2023-06-22T12:35:05;22.95;;;11.75;;
29382;SDS011;16365;51.598;7.668;2023-06-22T12:37:34;21.35;;;12.25;;
29382;SDS011;16365;51.598;7.668;2023-06-22T12:40:01;20.67;;;11.60;;
29382;SDS011;16365;51.598;7.668;2023-06-22T12:42:27;17.42;;;12.05;;
29382;SDS011;16365;51.598;7.668;2023-06-22T12:44:54;19.42;;;11.35;;
29382;SDS011;16365;51.598;7.668;2023-06-22T12:47:21;18.30;;;11.07;;
29382;SDS011;16365;51.598;7.668;2023-06-22T12:49:48;16.52;;;10.60;;
29382;SDS011;16365;51.598;7.668;2023-06-22T12:52:14;23.95;;;11.75;;
29382;SDS011;16365;51.598;7.668;2023-06-22T12:54:41;16.23;;;11.88;;
29382;SDS011;16365;51.598;7.668;2023-06-22T12:57:20;20.45;;;11.45;;
29382;SDS011;16365;51.598;7.668;2023-06-22T12:59:46;19.35;;;12.88;;
29382;SDS011;16365;51.598;7.668;2023-06-22T13:02:12;20.70;;;12.77;;
29382;SDS011;16365;51.598;7.668;2023-06-22T13:04:39;17.83;;;12.43;;
29382;SDS011;16365;51.598;7.668;2023-06-22T13:07:06;19.40;;;12.15;;
29382;SDS011;16365;51.598;7.668;2023-06-22T13:09:47;25.42;;;13.65;;
29382;SDS011;16365;51.598;7.668;2023-06-22T13:12:17;19.88;;;12.40;;
29382;SDS011;16365;51.598;7.668;2023-06-22T13:14:44;18.17;;;13.00;;
29382;SDS011;16365;51.598;7.668;2023-06-22T13:17:12;19.73;;;12.90;;
29382;SDS011;16365;51.598;7.668;2023-06-22T13:19:40;21.73;;;13.07;;
29382;SDS011;16365;51.598;7.668;2023-06-22T13:22:09;18.45;;;12.75;;
29382;SDS011;16365;51.598;7.668;2023-06-22T13:24:56;20.13;;;13.73;;
29382;SDS011;16365;51.598;7.668;2023-06-22T13:27:23;19.17;;;13.40;;
29382;SDS011;16365;51.598;7.668;2023-06-22T13:29:50;23.52;;;14.32;;
29382;SDS011;16365;51.598;7.668;2023-06-22T13:32:16;17.38;;;13.30;;
29382;SDS011;16365;51.598;7.668;2023-06-22T13:34:43;21.88;;;14.30;;
29382;SDS011;16365;51.598;7.668;2023-06-22T13:37:09;19.48;;;14.27;;
29382;SDS011;16365;51.598;7.668;2023-06-22T13:39:36;19.63;;;14.60;;
29382;SDS011;16365;51.598;7.668;2023-06-22T13:42:03;17.70;;;13.48;;
29382;SDS011;16365;51.598;7.668;2023-06-22T13:44:30;27.90;;;14.93;;
29382;SDS011;16365;51.598;7.668;2023-06-22T13:46:56;21.50;;;14.45;;
29382;SDS011;16365;51.598;7.668;2023-06-22T13:49:23;19.15;;;14.20;;
29382;SDS011;16365;51.598;7.668;2023-06-22T13:51:49;20.52;;;14.48;;
29382;SDS011;16365;51.598;7.668;2023-06-22T13:54:16;22.65;;;14.88;;
29382;SDS011;16365;51.598;7.668;2023-06-22T13:56:55;18.33;;;13.93;;
29382;SDS011;16365;51.598;7.668;2023-06-22T13:59:21;17.92;;;13.88;;
29382;SDS011;16365;51.598;7.668;2023-06-22T14:01:48;20.05;;;14.95;;
29382;SDS011;16365;51.598;7.668;2023-06-22T14:04:14;18.08;;;14.75;;
29382;SDS011;16365;51.598;7.668;2023-06-22T14:06:41;21.50;;;15.13;;
29382;SDS011;16365;51.598;7.668;2023-06-22T14:09:08;17.98;;;14.43;;
29382;SDS011;16365;51.598;7.668;2023-06-22T14:11:34;25.13;;;15.60;;
29382;SDS011;16365;51.598;7.668;2023-06-22T14:14:01;20.02;;;15.32;;
29382;SDS011;16365;51.598;7.668;2023-06-22T14:16:28;20.77;;;15.70;;
29382;SDS011;16365;51.598;7.668;2023-06-22T14:18:54;20.25;;;15.77;;
29382;SDS011;16365;51.598;7.668;2023-06-22T14:21:23;20.63;;;14.95;;
29382;SDS011;16365;51.598;7.668;2023-06-22T14:23:50;17.92;;;14.77;;
29382;SDS011;16365;51.598;7.668;2023-06-22T14:26:17;19.08;;;15.05;;
29382;SDS011;16365;51.598;7.668;2023-06-22T14:28:46;18.30;;;14.45;;
29382;SDS011;16365;51.598;7.668;2023-06-22T14:31:15;16.13;;;13.90;;
29382;SDS011;16365;51.598;7.668;2023-06-22T14:33:46;17.48;;;14.45;;
29382;SDS011;16365;51.598;7.668;2023-06-22T14:36:14;16.23;;;13.73;;
29382;SDS011;16365;51.598;7.668;2023-06-22T14:38:43;19.98;;;14.80;;
29382;SDS011;16365;51.598;7.668;2023-06-22T14:41:10;21.42;;;14.65;;
29382;SDS011;16365;51.598;7.668;2023-06-22T14:43:43;21.75;;;16.08;;
29382;SDS011;16365;51.598;7.668;2023-06-22T14:46:12;18.23;;;14.48;;
29382;SDS011;16365;51.598;7.668;2023-06-22T14:48:41;18.20;;;15.57;;